Time,TemperatureF,DewpointF,PressureIn,WindDirection,WindDirectionDegrees,WindSpeedMPH,WindSpeedGustMPH,Humidity,HourlyPrecipIn,Conditions,Clouds,dailyrainin,SolarRadiationWatts/m^2,SoftwareType,DateUTC
2013-02-22 00:11:00,19.4,16.0,29.92,WSW,251,2.0,3.0,86,0.00,,,0.00,0,weatherlink.com 1.10,2013-02-22 07:11:00,
2013-02-22 00:26:00,19.3,16.0,29.92,WNW,288,1.0,3.0,87,0.00,,,0.00,0,weatherlink.com 1.10,2013-02-22 07:26:00,
2013-02-22 00:41:00,19.0,16.0,29.92,West,279,0.0,1.0,88,0.00,,,0.00,0,weatherlink.com 1.10,2013-02-22 07:41:00,
2013-02-22 00:56:00,18.8,16.0,29.91,West,279,0.0,1.0,87,0.00,,,0.00,0,weatherlink.com 1.10,2013-02-22 07:56:00,
2013-02-22 01:11:00,18.9,15.0,29.91,West,259,0.0,3.0,86,0.00,,,0.00,0,weatherlink.com 1.10,2013-02-22 08:11:00,
2013-02-22 01:26:00,18.8,16.0,29.91,West,259,0.0,2.0,87,0.00,,,0.00,0,weatherlink.com 1.10,2013-02-22 08:26:00,
2013-02-22 01:41:00,18.5,16.0,29.91,WSW,248,1.0,3.0,88,0.00,,,0.00,0,weatherlink.com 1.10,2013-02-22 08:41:00,
2013-02-22 01:56:00,18.5,16.0,29.91,WSW,250,0.0,2.0,88,0.00,,,0.00,0,weatherlink.com 1.10,2013-02-22 08:56:00,
2013-02-22 02:11:00,18.6,16.0,29.91,WSW,252,0.0,1.0,88,0.00,,,0.00,0,weatherlink.com 1.10,2013-02-22 09:11:00,
2013-02-22 02:26:00,18.8,16.0,29.90,WSW,254,1.0,3.0,88,0.00,,,0.00,0,weatherlink.com 1.10,2013-02-22 09:26:00,
2013-02-22 02:41:00,18.9,16.0,29.90,SW,229,3.0,3.0,87,0.00,,,0.00,0,weatherlink.com 1.10,2013-02-22 09:41:00,
2013-02-22 02:56:00,19.0,16.0,29.90,WSW,250,0.0,5.0,87,0.00,,,0.00,0,weatherlink.com 1.10,2013-02-22 09:56:00,
2013-02-22 03:11:00,18.8,16.0,29.90,SW,236,2.0,4.0,87,0.00,,,0.00,0,weatherlink.com 1.10,2013-02-22 10:11:00,
2013-02-22 03:26:00,18.6,15.0,29.90,WSW,243,0.0,2.0,87,0.00,,,0.00,0,weatherlink.com 1.10,2013-02-22 10:26:00,
2013-02-22 03:41:00,18.2,15.0,29.89,WSW,243,0.0,2.0,87,0.00,,,0.00,0,weatherlink.com 1.10,2013-02-22 10:41:00,
2013-02-22 03:56:00,17.9,15.0,29.90,WSW,243,0.0,2.0,88,0.00,,,0.00,0,weatherlink.com 1.10,2013-02-22 10:56:00,
2013-02-22 04:11:00,18.0,15.0,29.90,WSW,244,0.0,3.0,88,0.00,,,0.00,0,weatherlink.com 1.10,2013-02-22 11:11:00,
2013-02-22 04:26:00,17.8,15.0,29.90,WSW,244,0.0,2.0,89,0.00,,,0.00,0,weatherlink.com 1.10,2013-02-22 11:26:00,
2013-02-22 04:41:00,17.4,15.0,29.91,WSW,244,0.0,0.0,89,0.00,,,0.00,0,weatherlink.com 1.10,2013-02-22 11:41:00,
2013-02-22 04:56:00,17.4,15.0,29.91,WSW,245,1.0,3.0,88,0.00,,,0.00,0,weatherlink.com 1.10,2013-02-22 11:56:00,
2013-02-22 05:11:00,17.0,14.0,29.91,WSW,245,0.0,3.0,88,0.00,,,0.00,0,weatherlink.com 1.10,2013-02-22 12:11:00,
2013-02-22 05:27:00,16.9,14.0,29.91,WSW,245,0.0,2.0,89,0.00,,,0.00,0,weatherlink.com 1.10,2013-02-22 12:27:00,
2013-02-22 05:42:00,16.8,14.0,29.91,WSW,245,0.0,0.0,89,0.00,,,0.00,0,weatherlink.com 1.10,2013-02-22 12:42:00,
2013-02-22 05:57:00,16.8,14.0,29.92,WSW,245,0.0,2.0,89,0.00,,,0.00,0,weatherlink.com 1.10,2013-02-22 12:57:00,
2013-02-22 06:12:00,16.8,14.0,29.92,WSW,252,0.0,3.0,89,0.00,,,0.00,0,weatherlink.com 1.10,2013-02-22 13:12:00,
2013-02-22 06:27:00,16.4,14.0,29.92,WSW,252,0.0,0.0,89,0.00,,,0.00,0,weatherlink.com 1.10,2013-02-22 13:27:00,
2013-02-22 06:42:00,16.1,14.0,29.92,West,279,1.0,1.0,90,0.00,,,0.00,0,weatherlink.com 1.10,2013-02-22 13:42:00,
2013-02-22 06:57:00,16.4,14.0,29.93,WSW,256,0.0,2.0,89,0.00,,,0.00,5,weatherlink.com 1.10,2013-02-22 13:57:00,
2013-02-22 07:12:00,16.3,14.0,29.93,West,270,2.0,2.0,89,0.00,,,0.00,7,weatherlink.com 1.10,2013-02-22 14:12:00,
2013-02-22 07:27:00,16.2,14.0,29.94,WNW,295,1.0,2.0,89,0.00,,,0.00,9,weatherlink.com 1.10,2013-02-22 14:27:00,
2013-02-22 07:42:00,15.8,13.0,29.94,West,279,0.0,1.0,89,0.00,,,0.00,14,weatherlink.com 1.10,2013-02-22 14:42:00,
2013-02-22 07:57:00,16.3,14.0,29.94,West,262,0.0,2.0,89,0.00,,,0.00,16,weatherlink.com 1.10,2013-02-22 14:57:00,
2013-02-22 08:12:00,15.8,13.0,29.95,WSW,251,0.0,0.0,89,0.00,,,0.00,16,weatherlink.com 1.10,2013-02-22 15:12:00,
2013-02-22 08:27:00,15.9,13.0,29.96,WSW,251,0.0,0.0,89,0.00,,,0.00,25,weatherlink.com 1.10,2013-02-22 15:27:00,
2013-02-22 08:42:00,15.7,13.0,29.96,WSW,254,0.0,2.0,90,0.00,,,0.00,18,weatherlink.com 1.10,2013-02-22 15:42:00,
2013-02-22 08:57:00,16.5,14.0,29.96,WNW,291,0.0,1.0,88,0.00,,,0.00,21,weatherlink.com 1.10,2013-02-22 15:57:00,
2013-02-22 09:12:00,16.9,14.0,29.96,WSW,254,0.0,2.0,88,0.00,,,0.00,51,weatherlink.com 1.10,2013-02-22 16:12:00,
2013-02-22 09:27:00,18.1,15.0,29.96,WSW,247,3.0,3.0,86,0.00,,,0.00,51,weatherlink.com 1.10,2013-02-22 16:27:00,
2013-02-22 09:42:00,17.9,14.0,29.96,WSW,250,2.0,3.0,84,0.00,,,0.00,54,weatherlink.com 1.10,2013-02-22 16:42:00,
2013-02-22 09:57:00,19.9,16.0,29.96,North,360,1.0,4.0,83,0.00,,,0.00,113,weatherlink.com 1.10,2013-02-22 16:57:00,
2013-02-22 10:12:00,21.6,16.0,29.96,North,360,4.0,5.0,80,0.00,,,0.00,221,weatherlink.com 1.10,2013-02-22 17:12:00,
2013-02-22 10:27:00,23.2,16.0,29.96,North,360,4.0,5.0,73,0.00,,,0.00,190,weatherlink.com 1.10,2013-02-22 17:27:00,
2013-02-22 10:42:00,25.0,16.0,29.95,North,360,4.0,7.0,69,0.00,,,0.00,360,weatherlink.com 1.10,2013-02-22 17:42:00,
2013-02-22 10:57:00,24.5,15.0,29.95,North,360,4.0,6.0,66,0.01,,,0.01,413,weatherlink.com 1.10,2013-02-22 17:57:00,
2013-02-22 11:12:00,24.6,15.0,29.95,North,360,2.0,4.0,67,0.01,,,0.01,206,weatherlink.com 1.10,2013-02-22 18:12:00,
2013-02-22 11:27:00,24.3,15.0,29.94,North,360,1.0,5.0,67,0.01,,,0.01,229,weatherlink.com 1.10,2013-02-22 18:27:00,
2013-02-22 11:42:00,24.6,15.0,29.94,North,360,2.0,4.0,67,0.00,,,0.01,197,weatherlink.com 1.10,2013-02-22 18:42:00,
2013-02-22 11:57:00,26.2,14.0,29.93,North,360,5.0,5.0,59,0.00,,,0.01,272,weatherlink.com 1.10,2013-02-22 18:57:00,
2013-02-22 12:12:00,26.7,14.0,29.92,North,360,2.0,7.0,60,0.00,,,0.01,1114,weatherlink.com 1.10,2013-02-22 19:12:00,
2013-02-22 12:27:00,27.2,14.0,29.91,North,360,3.0,7.0,57,0.00,,,0.01,441,weatherlink.com 1.10,2013-02-22 19:27:00,
2013-02-22 12:42:00,28.7,15.0,29.91,North,360,4.0,9.0,56,0.00,,,0.01,1035,weatherlink.com 1.10,2013-02-22 19:42:00,
2013-02-22 12:57:00,28.4,14.0,29.90,North,360,6.0,8.0,56,0.00,,,0.01,489,weatherlink.com 1.10,2013-02-22 19:57:00,
2013-02-22 13:12:00,25.6,14.0,29.90,North,360,3.0,6.0,62,0.01,,,0.02,216,weatherlink.com 1.10,2013-02-22 20:12:00,
2013-02-22 13:27:00,23.6,15.0,29.90,North,360,3.0,6.0,71,0.01,,,0.02,135,weatherlink.com 1.10,2013-02-22 20:27:00,
2013-02-22 13:43:00,24.4,17.0,29.90,North,360,3.0,7.0,72,0.01,,,0.02,408,weatherlink.com 1.10,2013-02-22 20:43:00,
2013-02-22 13:58:00,25.2,16.0,29.89,North,360,2.0,4.0,69,0.01,,,0.02,810,weatherlink.com 1.10,2013-02-22 20:58:00,
2013-02-22 14:13:00,24.6,16.0,29.89,North,360,0.0,7.0,71,0.00,,,0.02,146,weatherlink.com 1.10,2013-02-22 21:13:00,
2013-02-22 14:28:00,21.2,17.0,29.90,WNW,292,0.0,3.0,84,0.00,,,0.02,137,weatherlink.com 1.10,2013-02-22 21:28:00,
2013-02-22 14:43:00,21.1,17.0,29.90,WNW,301,1.0,3.0,84,0.00,,,0.02,158,weatherlink.com 1.10,2013-02-22 21:43:00,
2013-02-22 14:58:00,20.7,17.0,29.90,NW,304,1.0,4.0,84,0.00,,,0.02,171,weatherlink.com 1.10,2013-02-22 21:58:00,
2013-02-22 15:13:00,20.5,17.0,29.89,SSW,206,0.0,2.0,85,0.00,,,0.02,137,weatherlink.com 1.10,2013-02-22 22:13:00,
2013-02-22 15:28:00,21.3,17.0,29.89,NNW,328,0.0,3.0,83,0.00,,,0.02,91,weatherlink.com 1.10,2013-02-22 22:28:00,
2013-02-22 15:43:00,19.9,17.0,29.90,WNW,294,0.0,3.0,87,0.00,,,0.02,90,weatherlink.com 1.10,2013-02-22 22:43:00,
2013-02-22 15:58:00,20.6,17.0,29.90,West,269,0.0,2.0,84,0.00,,,0.02,105,weatherlink.com 1.10,2013-02-22 22:58:00,
2013-02-22 16:13:00,21.3,17.0,29.89,WSW,256,2.0,3.0,82,0.00,,,0.02,65,weatherlink.com 1.10,2013-02-22 23:13:00,
2013-02-22 16:28:00,20.5,17.0,29.89,WNW,290,0.0,2.0,85,0.00,,,0.02,39,weatherlink.com 1.10,2013-02-22 23:28:00,
2013-02-22 16:43:00,20.4,17.0,29.89,West,279,3.0,3.0,86,0.00,,,0.02,35,weatherlink.com 1.10,2013-02-22 23:43:00,
2013-02-22 16:58:00,19.9,16.0,29.90,West,261,1.0,3.0,86,0.00,,,0.02,12,weatherlink.com 1.10,2013-02-22 23:58:00,
2013-02-22 17:13:00,18.7,16.0,29.91,West,265,0.0,3.0,87,0.00,,,0.02,16,weatherlink.com 1.10,2013-02-23 00:13:00,
2013-02-22 17:28:00,18.9,15.0,29.92,SW,221,0.0,1.0,86,0.00,,,0.02,7,weatherlink.com 1.10,2013-02-23 00:28:00,
2013-02-22 17:43:00,18.9,15.0,29.93,SW,217,0.0,1.0,85,0.00,,,0.02,0,weatherlink.com 1.10,2013-02-23 00:43:00,
2013-02-22 17:58:00,19.0,15.0,29.94,SW,224,0.0,1.0,84,0.00,,,0.02,0,weatherlink.com 1.10,2013-02-23 00:58:00,
2013-02-22 18:13:00,18.7,15.0,29.95,SW,232,1.0,2.0,85,0.00,,,0.02,0,weatherlink.com 1.10,2013-02-23 01:13:00,
2013-02-22 18:28:00,17.9,15.0,29.96,West,277,0.0,4.0,87,0.00,,,0.02,0,weatherlink.com 1.10,2013-02-23 01:28:00,
2013-02-22 18:43:00,17.7,15.0,29.97,SW,220,1.0,2.0,87,0.00,,,0.02,0,weatherlink.com 1.10,2013-02-23 01:43:00,
2013-02-22 18:58:00,17.5,15.0,29.97,West,271,0.0,1.0,88,0.00,,,0.02,0,weatherlink.com 1.10,2013-02-23 01:58:00,
2013-02-22 19:13:00,17.2,14.0,29.98,West,265,0.0,2.0,86,0.00,,,0.02,0,weatherlink.com 1.10,2013-02-23 02:13:00,
2013-02-22 19:28:00,16.6,13.0,29.97,WSW,246,0.0,3.0,87,0.00,,,0.02,0,weatherlink.com 1.10,2013-02-23 02:28:00,
2013-02-22 19:58:00,15.9,13.0,29.98,South,188,0.0,2.0,88,0.00,,,0.02,0,weatherlink.com 1.10,2013-02-23 02:58:00,
2013-02-22 20:13:00,15.8,13.0,29.98,West,269,0.0,2.0,88,0.00,,,0.02,0,weatherlink.com 1.10,2013-02-23 03:13:00,
2013-02-22 20:28:00,16.0,14.0,29.99,WSW,250,0.0,2.0,90,0.00,,,0.02,0,weatherlink.com 1.10,2013-02-23 03:28:00,
2013-02-22 20:43:00,15.8,13.0,29.99,WSW,254,1.0,3.0,88,0.00,,,0.02,0,weatherlink.com 1.10,2013-02-23 03:43:00,
2013-02-22 20:58:00,14.8,12.0,30.00,SW,232,0.0,0.0,87,0.00,,,0.02,0,weatherlink.com 1.10,2013-02-23 03:58:00,
2013-02-22 21:13:00,14.5,12.0,30.00,West,263,2.0,2.0,88,0.00,,,0.02,0,weatherlink.com 1.10,2013-02-23 04:13:00,
2013-02-22 21:28:00,14.3,11.0,30.01,WSW,252,2.0,3.0,88,0.00,,,0.02,0,weatherlink.com 1.10,2013-02-23 04:28:00,
2013-02-22 21:43:00,13.9,11.0,30.02,WSW,254,0.0,2.0,88,0.00,,,0.02,0,weatherlink.com 1.10,2013-02-23 04:43:00,
2013-02-22 21:58:00,13.4,11.0,30.02,SW,232,0.0,2.0,89,0.00,,,0.02,0,weatherlink.com 1.10,2013-02-23 04:58:00,
2013-02-22 22:13:00,12.7,10.0,30.02,WSW,238,0.0,1.0,88,0.00,,,0.02,0,weatherlink.com 1.10,2013-02-23 05:13:00,
2013-02-22 22:28:00,12.9,10.0,30.02,SSE,157,0.0,2.0,89,0.00,,,0.02,0,weatherlink.com 1.10,2013-02-23 05:28:00,
2013-02-22 22:43:00,12.7,10.0,30.02,SE,124,0.0,0.0,88,0.00,,,0.02,0,weatherlink.com 1.10,2013-02-23 05:43:00,
2013-02-22 22:58:00,13.7,11.0,30.03,SSE,164,0.0,2.0,87,0.00,,,0.02,0,weatherlink.com 1.10,2013-02-23 05:58:00,
2013-02-22 23:13:00,14.0,11.0,30.02,WSW,244,0.0,2.0,86,0.00,,,0.02,0,weatherlink.com 1.10,2013-02-23 06:13:00,
2013-02-22 23:28:00,13.7,10.0,30.02,WSW,246,0.0,2.0,86,0.00,,,0.02,0,weatherlink.com 1.10,2013-02-23 06:28:00,
2013-02-22 23:43:00,12.3,9.0,30.02,WSW,247,0.0,2.0,87,0.00,,,0.02,0,weatherlink.com 1.10,2013-02-23 06:43:00,
2013-02-22 23:59:00,11.8,9.0,30.03,South,180,0.0,1.0,87,0.00,,,0.02,0,weatherlink.com 1.10,2013-02-23 06:59:00,